sensor_id;sensor_type;location;lat;lon;timestamp;temperature;humidity
20432;DHT22;10375;49.136;10.366;2023-11-21T00:02:27;7.10;99.90
20432;DHT22;10375;49.136;10.366;2023-11-21T00:04:55;7.10;99.90
20432;DHT22;10375;49.136;10.366;2023-11-21T00:07:22;7.10;99.90
20432;DHT22;10375;49.136;10.366;2023-11-21T00:09:49;7.10;99.90
20432;DHT22;10375;49.136;10.366;2023-11-21T00:12:16;7.10;99.90
20432;DHT22;10375;49.136;10.366;2023-11-21T00:14:44;7.00;99.90
20432;DHT22;10375;49.136;10.366;2023-11-21T00:17:11;7.10;99.90
20432;DHT22;10375;49.136;10.366;2023-11-21T00:19:39;7.10;99.90
20432;DHT22;10375;49.136;10.366;2023-11-21T00:22:06;7.10;99.90
20432;DHT22;10375;49.136;10.366;2023-11-21T00:24:34;7.10;99.90
20432;DHT22;10375;49.136;10.366;2023-11-21T00:27:02;7.10;99.90
20432;DHT22;10375;49.136;10.366;2023-11-21T00:29:29;7.10;99.90
20432;DHT22;10375;49.136;10.366;2023-11-21T00:31:56;7.10;99.90
20432;DHT22;10375;49.136;10.366;2023-11-21T00:34:23;7.10;99.90
20432;DHT22;10375;49.136;10.366;2023-11-21T00:36:50;7.10;99.90
20432;DHT22;10375;49.136;10.366;2023-11-21T00:39:18;7.20;99.90
20432;DHT22;10375;49.136;10.366;2023-11-21T00:41:45;7.20;99.90
20432;DHT22;10375;49.136;10.366;2023-11-21T00:44:12;7.20;99.90
20432;DHT22;10375;49.136;10.366;2023-11-21T00:46:39;7.20;99.90
20432;DHT22;10375;49.136;10.366;2023-11-21T00:49:06;7.10;99.90
20432;DHT22;10375;49.136;10.366;2023-11-21T00:51:34;7.20;99.90
20432;DHT22;10375;49.136;10.366;2023-11-21T00:54:02;7.10;99.90
20432;DHT22;10375;49.136;10.366;2023-11-21T00:56:30;7.20;99.90
20432;DHT22;10375;49.136;10.366;2023-11-21T00:58:57;7.10;99.90
20432;DHT22;10375;49.136;10.366;2023-11-21T01:01:24;7.10;99.90
20432;DHT22;10375;49.136;10.366;2023-11-21T01:03:51;7.10;99.90
20432;DHT22;10375;49.136;10.366;2023-11-21T01:06:19;7.10;99.90
20432;DHT22;10375;49.136;10.366;2023-11-21T01:08:46;7.10;99.90
20432;DHT22;10375;49.136;10.366;2023-11-21T01:11:13;7.10;99.90
20432;DHT22;10375;49.136;10.366;2023-11-21T01:13:42;7.00;99.90
20432;DHT22;10375;49.136;10.366;2023-11-21T01:16:09;7.00;99.90
20432;DHT22;10375;49.136;10.366;2023-11-21T01:18:36;7.00;99.90
20432;DHT22;10375;49.136;10.366;2023-11-21T01:21:04;7.00;99.90
20432;DHT22;10375;49.136;10.366;2023-11-21T01:23:31;7.10;99.90
20432;DHT22;10375;49.136;10.366;2023-11-21T01:25:58;7.00;99.90
20432;DHT22;10375;49.136;10.366;2023-11-21T01:28:25;7.00;99.90
20432;DHT22;10375;49.136;10.366;2023-11-21T01:30:53;7.00;99.90
20432;DHT22;10375;49.136;10.366;2023-11-21T01:33:23;7.00;99.90
20432;DHT22;10375;49.136;10.366;2023-11-21T01:35:52;7.00;99.90
20432;DHT22;10375;49.136;10.366;2023-11-21T01:38:22;7.00;99.90
20432;DHT22;10375;49.136;10.366;2023-11-21T01:40:49;7.00;99.90
20432;DHT22;10375;49.136;10.366;2023-11-21T01:43:16;7.00;99.90
20432;DHT22;10375;49.136;10.366;2023-11-21T01:45:44;7.00;99.90
20432;DHT22;10375;49.136;10.366;2023-11-21T01:48:13;7.00;99.90
20432;DHT22;10375;49.136;10.366;2023-11-21T01:50:41;7.00;99.90
20432;DHT22;10375;49.136;10.366;2023-11-21T01:53:10;7.00;99.90
20432;DHT22;10375;49.136;10.366;2023-11-21T01:55:38;7.00;99.90
20432;DHT22;10375;49.136;10.366;2023-11-21T01:58:07;7.00;99.90
20432;DHT22;10375;49.136;10.366;2023-11-21T02:00:34;7.00;99.90
20432;DHT22;10375;49.136;10.366;2023-11-21T02:03:01;7.10;99.90
20432;DHT22;10375;49.136;10.366;2023-11-21T02:05:29;7.00;99.90
20432;DHT22;10375;49.136;10.366;2023-11-21T02:07:56;7.10;99.90
20432;DHT22;10375;49.136;10.366;2023-11-21T02:10:24;7.00;99.90
20432;DHT22;10375;49.136;10.366;2023-11-21T02:12:51;7.00;99.90
20432;DHT22;10375;49.136;10.366;2023-11-21T02:15:19;7.00;99.90
20432;DHT22;10375;49.136;10.366;2023-11-21T02:17:50;7.00;99.90
20432;DHT22;10375;49.136;10.366;2023-11-21T02:20:22;7.00;99.90
20432;DHT22;10375;49.136;10.366;2023-11-21T02:22:56;7.00;99.90
20432;DHT22;10375;49.136;10.366;2023-11-21T02:25:32;7.00;99.90
20432;DHT22;10375;49.136;10.366;2023-11-21T02:28:02;7.00;99.90
20432;DHT22;10375;49.136;10.366;2023-11-21T02:30:30;7.00;99.90
20432;DHT22;10375;49.136;10.366;2023-11-21T02:33:01;7.00;99.90
20432;DHT22;10375;49.136;10.366;2023-11-21T02:35:29;7.00;99.90
20432;DHT22;10375;49.136;10.366;2023-11-21T02:37:58;7.00;99.90
20432;DHT22;10375;49.136;10.366;2023-11-21T02:40:28;7.00;99.90
20432;DHT22;10375;49.136;10.366;2023-11-21T02:42:56;7.00;99.90
20432;DHT22;10375;49.136;10.366;2023-11-21T02:45:26;7.00;99.90
20432;DHT22;10375;49.136;10.366;2023-11-21T02:47:53;7.10;99.90
20432;DHT22;10375;49.136;10.366;2023-11-21T02:50:25;7.10;99.90
20432;DHT22;10375;49.136;10.366;2023-11-21T02:52:52;7.10;99.90
20432;DHT22;10375;49.136;10.366;2023-11-21T02:55:19;7.00;99.90
20432;DHT22;10375;49.136;10.366;2023-11-21T02:57:46;7.10;99.90
20432;DHT22;10375;49.136;10.366;2023-11-21T03:00:14;7.00;99.90
20432;DHT22;10375;49.136;10.366;2023-11-21T03:02:42;7.00;99.90
20432;DHT22;10375;49.136;10.366;2023-11-21T03:05:11;7.10;99.90
20432;DHT22;10375;49.136;10.366;2023-11-21T03:07:38;7.10;99.90
20432;DHT22;10375;49.136;10.366;2023-11-21T03:10:09;7.10;99.90
20432;DHT22;10375;49.136;10.366;2023-11-21T03:12:39;7.10;99.90
20432;DHT22;10375;49.136;10.366;2023-11-21T03:15:07;7.10;99.90
20432;DHT22;10375;49.136;10.366;2023-11-21T03:17:34;7.10;99.90
20432;DHT22;10375;49.136;10.366;2023-11-21T03:20:02;7.10;99.90
20432;DHT22;10375;49.136;10.366;2023-11-21T03:22:31;7.10;99.90
20432;DHT22;10375;49.136;10.366;2023-11-21T03:24:58;7.10;99.90
20432;DHT22;10375;49.136;10.366;2023-11-21T03:27:25;7.20;99.90
20432;DHT22;10375;49.136;10.366;2023-11-21T03:29:52;7.20;99.90
20432;DHT22;10375;49.136;10.366;2023-11-21T03:32:21;7.20;99.90
20432;DHT22;10375;49.136;10.366;2023-11-21T03:34:56;7.20;99.90
20432;DHT22;10375;49.136;10.366;2023-11-21T03:37:25;7.20;99.90
20432;DHT22;10375;49.136;10.366;2023-11-21T03:39:55;7.20;99.90
20432;DHT22;10375;49.136;10.366;2023-11-21T03:42:24;7.20;99.90
20432;DHT22;10375;49.136;10.366;2023-11-21T03:44:53;7.20;99.90
20432;DHT22;10375;49.136;10.366;2023-11-21T03:47:21;7.20;99.90
20432;DHT22;10375;49.136;10.366;2023-11-21T03:49:48;7.20;99.90
20432;DHT22;10375;49.136;10.366;2023-11-21T03:52:15;7.10;99.90
20432;DHT22;10375;49.136;10.366;2023-11-21T03:54:43;7.10;99.90
20432;DHT22;10375;49.136;10.366;2023-11-21T03:57:11;7.10;99.90
20432;DHT22;10375;49.136;10.366;2023-11-21T03:59:41;7.10;99.90
20432;DHT22;10375;49.136;10.366;2023-11-21T04:02:09;7.10;99.90
20432;DHT22;10375;49.136;10.366;2023-11-21T04:04:36;7.00;99.90
20432;DHT22;10375;49.136;10.366;2023-11-21T04:07:04;7.10;99.90
20432;DHT22;10375;49.136;10.366;2023-11-21T04:09:31;7.10;99.90
20432;DHT22;10375;49.136;10.366;2023-11-21T04:11:59;7.00;99.90
20432;DHT22;10375;49.136;10.366;2023-11-21T04:14:26;7.00;99.90
20432;DHT22;10375;49.136;10.366;2023-11-21T04:16:53;7.00;99.90
20432;DHT22;10375;49.136;10.366;2023-11-21T04:19:21;7.00;99.90
20432;DHT22;10375;49.136;10.366;2023-11-21T04:21:49;7.00;99.90
20432;DHT22;10375;49.136;10.366;2023-11-21T04:24:16;7.00;99.90
20432;DHT22;10375;49.136;10.366;2023-11-21T04:26:44;7.00;99.90
20432;DHT22;10375;49.136;10.366;2023-11-21T04:29:11;7.00;99.90
20432;DHT22;10375;49.136;10.366;2023-11-21T04:31:38;7.10;99.90
20432;DHT22;10375;49.136;10.366;2023-11-21T04:34:05;7.00;99.90
20432;DHT22;10375;49.136;10.366;2023-11-21T04:36:33;7.00;99.90
20432;DHT22;10375;49.136;10.366;2023-11-21T04:39:01;7.00;99.90
20432;DHT22;10375;49.136;10.366;2023-11-21T04:41:29;7.00;99.90
20432;DHT22;10375;49.136;10.366;2023-11-21T04:43:59;7.00;99.90
20432;DHT22;10375;49.136;10.366;2023-11-21T04:46:28;7.00;99.90
20432;DHT22;10375;49.136;10.366;2023-11-21T04:48:55;7.00;99.90
20432;DHT22;10375;49.136;10.366;2023-11-21T04:51:22;7.00;99.90
20432;DHT22;10375;49.136;10.366;2023-11-21T04:53:50;7.00;99.90
20432;DHT22;10375;49.136;10.366;2023-11-21T04:56:17;7.00;99.90
20432;DHT22;10375;49.136;10.366;2023-11-21T04:58:44;7.00;99.90
20432;DHT22;10375;49.136;10.366;2023-11-21T05:01:11;7.00;99.90
20432;DHT22;10375;49.136;10.366;2023-11-21T05:03:39;6.90;99.90
20432;DHT22;10375;49.136;10.366;2023-11-21T05:06:06;6.90;99.90
20432;DHT22;10375;49.136;10.366;2023-11-21T05:08:36;6.90;99.90
20432;DHT22;10375;49.136;10.366;2023-11-21T05:11:03;6.90;99.90
20432;DHT22;10375;49.136;10.366;2023-11-21T05:13:32;7.00;99.90
20432;DHT22;10375;49.136;10.366;2023-11-21T05:16:00;6.90;99.90
20432;DHT22;10375;49.136;10.366;2023-11-21T05:18:30;7.00;99.90
20432;DHT22;10375;49.136;10.366;2023-11-21T05:20:58;7.00;99.90
20432;DHT22;10375;49.136;10.366;2023-11-21T05:23:25;7.00;99.90
20432;DHT22;10375;49.136;10.366;2023-11-21T05:25:52;6.90;99.90
20432;DHT22;10375;49.136;10.366;2023-11-21T05:28:20;7.00;99.90
20432;DHT22;10375;49.136;10.366;2023-11-21T05:30:47;7.00;99.90
20432;DHT22;10375;49.136;10.366;2023-11-21T05:33:16;7.00;99.90
20432;DHT22;10375;49.136;10.366;2023-11-21T05:35:44;7.10;99.90
20432;DHT22;10375;49.136;10.366;2023-11-21T05:38:11;7.00;99.90
20432;DHT22;10375;49.136;10.366;2023-11-21T05:40:38;7.00;99.90
20432;DHT22;10375;49.136;10.366;2023-11-21T05:43:06;7.00;99.90
20432;DHT22;10375;49.136;10.366;2023-11-21T05:45:33;7.00;99.90
20432;DHT22;10375;49.136;10.366;2023-11-21T05:48:01;7.00;99.90
20432;DHT22;10375;49.136;10.366;2023-11-21T05:50:29;7.00;99.90
20432;DHT22;10375;49.136;10.366;2023-11-21T05:52:57;7.00;99.90
20432;DHT22;10375;49.136;10.366;2023-11-21T05:55:26;7.00;99.90
20432;DHT22;10375;49.136;10.366;2023-11-21T05:57:54;7.00;99.90
20432;DHT22;10375;49.136;10.366;2023-11-21T06:00:21;6.90;99.90
20432;DHT22;10375;49.136;10.366;2023-11-21T06:02:52;6.90;99.90
20432;DHT22;10375;49.136;10.366;2023-11-21T06:05:23;6.90;99.90
20432;DHT22;10375;49.136;10.366;2023-11-21T06:07:52;6.90;99.90
20432;DHT22;10375;49.136;10.366;2023-11-21T06:10:22;6.90;99.90
20432;DHT22;10375;49.136;10.366;2023-11-21T06:12:52;6.90;99.90
20432;DHT22;10375;49.136;10.366;2023-11-21T06:15:20;6.90;99.90
20432;DHT22;10375;49.136;10.366;2023-11-21T06:17:49;7.00;99.90
20432;DHT22;10375;49.136;10.366;2023-11-21T06:20:21;7.00;99.90
20432;DHT22;10375;49.136;10.366;2023-11-21T06:22:51;7.00;99.90
20432;DHT22;10375;49.136;10.366;2023-11-21T06:25:19;7.00;99.90
20432;DHT22;10375;49.136;10.366;2023-11-21T06:27:48;7.00;99.90
20432;DHT22;10375;49.136;10.366;2023-11-21T06:30:15;7.10;99.90
20432;DHT22;10375;49.136;10.366;2023-11-21T06:32:44;7.10;99.90
20432;DHT22;10375;49.136;10.366;2023-11-21T06:35:14;7.10;99.90
20432;DHT22;10375;49.136;10.366;2023-11-21T06:37:44;7.00;99.90
20432;DHT22;10375;49.136;10.366;2023-11-21T06:40:17;7.10;99.90
20432;DHT22;10375;49.136;10.366;2023-11-21T06:42:48;7.10;99.90
20432;DHT22;10375;49.136;10.366;2023-11-21T06:45:16;7.10;99.90
20432;DHT22;10375;49.136;10.366;2023-11-21T06:47:44;7.10;99.90
20432;DHT22;10375;49.136;10.366;2023-11-21T06:50:14;7.10;99.90
20432;DHT22;10375;49.136;10.366;2023-11-21T06:52:41;7.00;99.90
20432;DHT22;10375;49.136;10.366;2023-11-21T06:55:08;7.00;99.90
20432;DHT22;10375;49.136;10.366;2023-11-21T06:57:37;7.00;99.90
20432;DHT22;10375;49.136;10.366;2023-11-21T07:00:05;7.10;99.90
20432;DHT22;10375;49.136;10.366;2023-11-21T07:02:36;7.10;99.90
20432;DHT22;10375;49.136;10.366;2023-11-21T07:05:04;7.10;99.90
20432;DHT22;10375;49.136;10.366;2023-11-21T07:07:32;7.20;99.90
20432;DHT22;10375;49.136;10.366;2023-11-21T07:10:03;7.20;99.90
20432;DHT22;10375;49.136;10.366;2023-11-21T07:12:31;7.20;99.90
20432;DHT22;10375;49.136;10.366;2023-11-21T07:14:59;7.20;99.90
20432;DHT22;10375;49.136;10.366;2023-11-21T07:17:27;7.20;99.90
20432;DHT22;10375;49.136;10.366;2023-11-21T07:19:55;7.20;99.90
20432;DHT22;10375;49.136;10.366;2023-11-21T07:22:22;7.20;99.90
20432;DHT22;10375;49.136;10.366;2023-11-21T07:24:50;7.30;99.90
20432;DHT22;10375;49.136;10.366;2023-11-21T07:27:21;7.30;99.90
20432;DHT22;10375;49.136;10.366;2023-11-21T07:29:48;7.30;99.90
20432;DHT22;10375;49.136;10.366;2023-11-21T07:32:16;7.30;99.90
20432;DHT22;10375;49.136;10.366;2023-11-21T07:34:43;7.40;99.90
20432;DHT22;10375;49.136;10.366;2023-11-21T07:37:11;7.40;99.90
20432;DHT22;10375;49.136;10.366;2023-11-21T07:39:39;7.40;99.90
20432;DHT22;10375;49.136;10.366;2023-11-21T07:42:09;7.50;99.90
20432;DHT22;10375;49.136;10.366;2023-11-21T07:44:37;7.50;99.90
20432;DHT22;10375;49.136;10.366;2023-11-21T07:47:05;7.50;99.90
20432;DHT22;10375;49.136;10.366;2023-11-21T07:49:32;7.60;99.90
20432;DHT22;10375;49.136;10.366;2023-11-21T07:52:00;7.60;99.90
20432;DHT22;10375;49.136;10.366;2023-11-21T07:54:27;7.60;99.90
20432;DHT22;10375;49.136;10.366;2023-11-21T07:56:54;7.60;99.90
20432;DHT22;10375;49.136;10.366;2023-11-21T07:59:22;7.70;99.90
20432;DHT22;10375;49.136;10.366;2023-11-21T08:01:49;7.70;99.90
20432;DHT22;10375;49.136;10.366;2023-11-21T08:04:17;7.70;99.90
20432;DHT22;10375;49.136;10.366;2023-11-21T08:06:44;7.70;99.90
20432;DHT22;10375;49.136;10.366;2023-11-21T08:09:11;7.80;99.90
20432;DHT22;10375;49.136;10.366;2023-11-21T08:11:39;7.90;99.90
20432;DHT22;10375;49.136;10.366;2023-11-21T08:14:06;7.90;99.90
20432;DHT22;10375;49.136;10.366;2023-11-21T08:16:34;7.90;99.90
20432;DHT22;10375;49.136;10.366;2023-11-21T08:19:03;8.00;99.90
20432;DHT22;10375;49.136;10.366;2023-11-21T08:21:32;8.10;99.90
20432;DHT22;10375;49.136;10.366;2023-11-21T08:24:00;8.10;99.90
20432;DHT22;10375;49.136;10.366;2023-11-21T08:26:29;8.20;99.90
20432;DHT22;10375;49.136;10.366;2023-11-21T08:28:57;8.20;99.90
20432;DHT22;10375;49.136;10.366;2023-11-21T08:31:34;8.30;99.90
20432;DHT22;10375;49.136;10.366;2023-11-21T08:34:04;8.30;99.90
20432;DHT22;10375;49.136;10.366;2023-11-21T08:36:33;8.30;99.90
20432;DHT22;10375;49.136;10.366;2023-11-21T08:39:16;8.30;99.90
20432;DHT22;10375;49.136;10.366;2023-11-21T08:41:46;8.40;99.90
20432;DHT22;10375;49.136;10.366;2023-11-21T08:44:14;8.40;99.90
20432;DHT22;10375;49.136;10.366;2023-11-21T08:47:11;8.40;99.90
20432;DHT22;10375;49.136;10.366;2023-11-21T08:49:44;8.50;99.90
20432;DHT22;10375;49.136;10.366;2023-11-21T08:52:30;8.50;99.90
20432;DHT22;10375;49.136;10.366;2023-11-21T08:55:07;8.60;99.90
20432;DHT22;10375;49.136;10.366;2023-11-21T08:57:37;8.60;99.90
20432;DHT22;10375;49.136;10.366;2023-11-21T09:00:15;8.60;99.90
20432;DHT22;10375;49.136;10.366;2023-11-21T09:02:44;8.60;99.90
20432;DHT22;10375;49.136;10.366;2023-11-21T09:05:13;8.60;99.90
20432;DHT22;10375;49.136;10.366;2023-11-21T09:07:42;8.60;99.90
20432;DHT22;10375;49.136;10.366;2023-11-21T09:10:14;8.60;99.90
20432;DHT22;10375;49.136;10.366;2023-11-21T09:12:44;8.70;99.90
20432;DHT22;10375;49.136;10.366;2023-11-21T09:15:13;8.70;99.90
20432;DHT22;10375;49.136;10.366;2023-11-21T09:17:47;8.70;99.90
20432;DHT22;10375;49.136;10.366;2023-11-21T09:20:36;8.70;99.90
20432;DHT22;10375;49.136;10.366;2023-11-21T09:23:12;8.70;99.90
20432;DHT22;10375;49.136;10.366;2023-11-21T09:25:42;8.70;99.90
20432;DHT22;10375;49.136;10.366;2023-11-21T09:28:15;8.60;99.90
20432;DHT22;10375;49.136;10.366;2023-11-21T09:30:49;8.70;99.90
20432;DHT22;10375;49.136;10.366;2023-11-21T09:33:17;8.70;99.90
20432;DHT22;10375;49.136;10.366;2023-11-21T09:35:45;8.70;99.90
20432;DHT22;10375;49.136;10.366;2023-11-21T09:38:14;8.80;99.90
20432;DHT22;10375;49.136;10.366;2023-11-21T09:40:42;8.80;99.90
20432;DHT22;10375;49.136;10.366;2023-11-21T09:43:16;8.90;99.90
20432;DHT22;10375;49.136;10.366;2023-11-21T09:45:54;9.00;99.90
20432;DHT22;10375;49.136;10.366;2023-11-21T09:48:29;9.00;99.90
20432;DHT22;10375;49.136;10.366;2023-11-21T09:51:00;9.00;99.90
20432;DHT22;10375;49.136;10.366;2023-11-21T09:53:34;9.10;99.90
20432;DHT22;10375;49.136;10.366;2023-11-21T09:56:17;9.10;99.90
20432;DHT22;10375;49.136;10.366;2023-11-21T09:58:55;9.20;99.90
20432;DHT22;10375;49.136;10.366;2023-11-21T10:01:28;9.20;99.90
20432;DHT22;10375;49.136;10.366;2023-11-21T10:03:56;9.30;99.90
20432;DHT22;10375;49.136;10.366;2023-11-21T10:06:25;9.30;99.90
20432;DHT22;10375;49.136;10.366;2023-11-21T10:08:54;9.50;99.90
20432;DHT22;10375;49.136;10.366;2023-11-21T10:11:27;9.50;99.90
20432;DHT22;10375;49.136;10.366;2023-11-21T10:13:58;9.60;99.90
20432;DHT22;10375;49.136;10.366;2023-11-21T10:16:27;9.70;99.90
20432;DHT22;10375;49.136;10.366;2023-11-21T10:18:57;9.70;99.90
20432;DHT22;10375;49.136;10.366;2023-11-21T10:21:52;9.80;99.90
20432;DHT22;10375;49.136;10.366;2023-11-21T10:24:43;9.90;99.90
20432;DHT22;10375;49.136;10.366;2023-11-21T10:27:30;9.90;99.90
20432;DHT22;10375;49.136;10.366;2023-11-21T10:30:05;9.90;99.90
20432;DHT22;10375;49.136;10.366;2023-11-21T10:32:40;9.80;99.90
20432;DHT22;10375;49.136;10.366;2023-11-21T10:38:37;9.70;99.90
20432;DHT22;10375;49.136;10.366;2023-11-21T10:41:16;9.70;99.90
20432;DHT22;10375;49.136;10.366;2023-11-21T10:43:52;9.70;99.90
20432;DHT22;10375;49.136;10.366;2023-11-21T10:46:24;9.60;99.90
20432;DHT22;10375;49.136;10.366;2023-11-21T10:49:04;9.60;99.90
20432;DHT22;10375;49.136;10.366;2023-11-21T10:51:47;9.50;99.90
20432;DHT22;10375;49.136;10.366;2023-11-21T10:54:23;9.20;99.90
20432;DHT22;10375;49.136;10.366;2023-11-21T10:56:58;9.10;99.90
20432;DHT22;10375;49.136;10.366;2023-11-21T10:59:31;8.90;99.90
20432;DHT22;10375;49.136;10.366;2023-11-21T11:12:07;8.60;99.90
20432;DHT22;10375;49.136;10.366;2023-11-21T11:14:40;8.60;99.90
20432;DHT22;10375;49.136;10.366;2023-11-21T11:17:13;8.70;99.90
20432;DHT22;10375;49.136;10.366;2023-11-21T11:20:00;8.70;99.90
20432;DHT22;10375;49.136;10.366;2023-11-21T11:34:29;8.90;99.90
20432;DHT22;10375;49.136;10.366;2023-11-21T11:37:04;8.80;99.90
20432;DHT22;10375;49.136;10.366;2023-11-21T11:43:02;8.90;99.90
20432;DHT22;10375;49.136;10.366;2023-11-21T11:45:38;9.10;99.90
20432;DHT22;10375;49.136;10.366;2023-11-21T11:48:17;9.30;99.90
20432;DHT22;10375;49.136;10.366;2023-11-21T11:51:15;9.40;99.90
20432;DHT22;10375;49.136;10.366;2023-11-21T11:54:05;9.60;99.90
20432;DHT22;10375;49.136;10.366;2023-11-21T11:56:34;9.80;99.90
20432;DHT22;10375;49.136;10.366;2023-11-21T11:59:04;10.00;99.90
20432;DHT22;10375;49.136;10.366;2023-11-21T12:01:40;10.00;99.90
20432;DHT22;10375;49.136;10.366;2023-11-21T12:06:51;9.80;99.90
20432;DHT22;10375;49.136;10.366;2023-11-21T12:09:20;9.80;99.90
20432;DHT22;10375;49.136;10.366;2023-11-21T12:11:49;9.70;99.90
20432;DHT22;10375;49.136;10.366;2023-11-21T12:14:25;9.70;99.90
20432;DHT22;10375;49.136;10.366;2023-11-21T12:16:53;9.70;99.90
20432;DHT22;10375;49.136;10.366;2023-11-21T12:19:20;9.70;99.90
20432;DHT22;10375;49.136;10.366;2023-11-21T12:21:48;9.70;99.90
20432;DHT22;10375;49.136;10.366;2023-11-21T12:24:15;9.60;99.90
20432;DHT22;10375;49.136;10.366;2023-11-21T12:26:43;9.50;99.90
20432;DHT22;10375;49.136;10.366;2023-11-21T12:29:11;9.50;99.90
20432;DHT22;10375;49.136;10.366;2023-11-21T12:31:38;9.30;99.90
20432;DHT22;10375;49.136;10.366;2023-11-21T12:34:07;9.20;99.90
20432;DHT22;10375;49.136;10.366;2023-11-21T12:36:38;9.10;99.90
20432;DHT22;10375;49.136;10.366;2023-11-21T12:39:05;9.10;99.90
20432;DHT22;10375;49.136;10.366;2023-11-21T12:41:35;9.00;99.90
20432;DHT22;10375;49.136;10.366;2023-11-21T12:44:03;9.00;99.90
20432;DHT22;10375;49.136;10.366;2023-11-21T12:46:30;8.90;99.90
20432;DHT22;10375;49.136;10.366;2023-11-21T12:49:00;8.90;99.90
20432;DHT22;10375;49.136;10.366;2023-11-21T12:51:27;8.80;99.90
20432;DHT22;10375;49.136;10.366;2023-11-21T12:53:56;8.80;99.90
20432;DHT22;10375;49.136;10.366;2023-11-21T12:56:23;8.70;99.90
20432;DHT22;10375;49.136;10.366;2023-11-21T12:58:50;8.70;99.90
20432;DHT22;10375;49.136;10.366;2023-11-21T13:01:21;8.70;99.90
20432;DHT22;10375;49.136;10.366;2023-11-21T13:03:53;8.70;99.90
20432;DHT22;10375;49.136;10.366;2023-11-21T13:06:20;8.70;99.90
20432;DHT22;10375;49.136;10.366;2023-11-21T13:08:51;8.70;99.90
20432;DHT22;10375;49.136;10.366;2023-11-21T13:11:19;8.80;99.90
20432;DHT22;10375;49.136;10.366;2023-11-21T13:13:46;8.90;99.90
20432;DHT22;10375;49.136;10.366;2023-11-21T13:16:13;9.00;99.90
20432;DHT22;10375;49.136;10.366;2023-11-21T13:18:42;9.10;99.90
20432;DHT22;10375;49.136;10.366;2023-11-21T13:21:11;9.20;99.90
20432;DHT22;10375;49.136;10.366;2023-11-21T13:23:42;9.20;99.90
20432;DHT22;10375;49.136;10.366;2023-11-21T13:26:09;9.20;99.90
20432;DHT22;10375;49.136;10.366;2023-11-21T13:28:37;9.20;99.90
20432;DHT22;10375;49.136;10.366;2023-11-21T13:31:06;9.10;99.90
20432;DHT22;10375;49.136;10.366;2023-11-21T13:33:38;9.10;99.90
20432;DHT22;10375;49.136;10.366;2023-11-21T13:36:08;9.00;99.90
20432;DHT22;10375;49.136;10.366;2023-11-21T13:38:37;9.00;99.90
20432;DHT22;10375;49.136;10.366;2023-11-21T13:41:09;9.10;99.90
20432;DHT22;10375;49.136;10.366;2023-11-21T13:43:37;9.00;99.90
20432;DHT22;10375;49.136;10.366;2023-11-21T13:46:05;9.00;99.90
20432;DHT22;10375;49.136;10.366;2023-11-21T13:48:42;9.00;99.90
20432;DHT22;10375;49.136;10.366;2023-11-21T13:51:10;9.00;99.90
20432;DHT22;10375;49.136;10.366;2023-11-21T13:53:48;8.90;99.90
20432;DHT22;10375;49.136;10.366;2023-11-21T13:56:18;8.80;99.90
20432;DHT22;10375;49.136;10.366;2023-11-21T13:58:52;8.70;99.90
20432;DHT22;10375;49.136;10.366;2023-11-21T14:01:22;8.70;99.90
20432;DHT22;10375;49.136;10.366;2023-11-21T14:04:03;8.60;99.90
20432;DHT22;10375;49.136;10.366;2023-11-21T14:07:00;8.60;99.90
20432;DHT22;10375;49.136;10.366;2023-11-21T14:09:37;8.50;99.90
20432;DHT22;10375;49.136;10.366;2023-11-21T14:12:11;8.50;99.90
20432;DHT22;10375;49.136;10.366;2023-11-21T14:14:42;8.60;99.90
20432;DHT22;10375;49.136;10.366;2023-11-21T14:17:11;8.50;99.90
20432;DHT22;10375;49.136;10.366;2023-11-21T14:19:38;8.50;99.90
20432;DHT22;10375;49.136;10.366;2023-11-21T14:22:11;8.50;99.90
20432;DHT22;10375;49.136;10.366;2023-11-21T14:24:38;8.50;99.90
20432;DHT22;10375;49.136;10.366;2023-11-21T14:27:10;8.40;99.90
20432;DHT22;10375;49.136;10.366;2023-11-21T14:29:38;8.40;99.90
20432;DHT22;10375;49.136;10.366;2023-11-21T14:32:09;8.40;99.90
20432;DHT22;10375;49.136;10.366;2023-11-21T14:34:36;8.40;99.90
20432;DHT22;10375;49.136;10.366;2023-11-21T14:37:05;8.40;99.90
20432;DHT22;10375;49.136;10.366;2023-11-21T14:39:32;8.40;99.90
20432;DHT22;10375;49.136;10.366;2023-11-21T14:42:05;8.40;99.90
20432;DHT22;10375;49.136;10.366;2023-11-21T14:44:34;8.30;99.90
20432;DHT22;10375;49.136;10.366;2023-11-21T14:47:05;8.30;99.90
20432;DHT22;10375;49.136;10.366;2023-11-21T14:49:42;8.30;99.90
20432;DHT22;10375;49.136;10.366;2023-11-21T14:52:30;8.30;99.90
20432;DHT22;10375;49.136;10.366;2023-11-21T14:55:03;8.30;99.90
20432;DHT22;10375;49.136;10.366;2023-11-21T14:57:59;8.30;99.90
20432;DHT22;10375;49.136;10.366;2023-11-21T15:00:34;8.30;99.90
20432;DHT22;10375;49.136;10.366;2023-11-21T15:03:08;8.30;99.90
20432;DHT22;10375;49.136;10.366;2023-11-21T15:05:37;8.20;99.90
20432;DHT22;10375;49.136;10.366;2023-11-21T15:08:09;8.20;99.90
20432;DHT22;10375;49.136;10.366;2023-11-21T15:10:54;8.20;99.90
20432;DHT22;10375;49.136;10.366;2023-11-21T15:13:22;8.10;99.90
20432;DHT22;10375;49.136;10.366;2023-11-21T15:15:52;8.10;99.90
20432;DHT22;10375;49.136;10.366;2023-11-21T15:18:21;8.10;99.90
20432;DHT22;10375;49.136;10.366;2023-11-21T15:20:49;8.00;99.90
20432;DHT22;10375;49.136;10.366;2023-11-21T15:23:16;8.00;99.90
20432;DHT22;10375;49.136;10.366;2023-11-21T15:25:46;8.00;99.90
20432;DHT22;10375;49.136;10.366;2023-11-21T15:28:13;8.00;99.90
20432;DHT22;10375;49.136;10.366;2023-11-21T15:30:40;7.90;99.90
20432;DHT22;10375;49.136;10.366;2023-11-21T15:33:07;7.90;99.90
20432;DHT22;10375;49.136;10.366;2023-11-21T15:35:36;7.80;99.90
20432;DHT22;10375;49.136;10.366;2023-11-21T15:38:05;7.90;99.90
20432;DHT22;10375;49.136;10.366;2023-11-21T15:40:35;7.80;99.90
20432;DHT22;10375;49.136;10.366;2023-11-21T15:43:02;7.80;99.90
20432;DHT22;10375;49.136;10.366;2023-11-21T15:45:30;7.70;99.90
20432;DHT22;10375;49.136;10.366;2023-11-21T15:47:58;7.60;99.90
20432;DHT22;10375;49.136;10.366;2023-11-21T15:50:27;7.60;99.90
20432;DHT22;10375;49.136;10.366;2023-11-21T15:52:56;7.50;99.90
20432;DHT22;10375;49.136;10.366;2023-11-21T15:55:25;7.50;99.90
20432;DHT22;10375;49.136;10.366;2023-11-21T15:57:53;7.50;99.90
20432;DHT22;10375;49.136;10.366;2023-11-21T16:00:21;7.40;99.90
20432;DHT22;10375;49.136;10.366;2023-11-21T16:02:51;7.40;99.90
20432;DHT22;10375;49.136;10.366;2023-11-21T16:05:22;7.30;99.90
20432;DHT22;10375;49.136;10.366;2023-11-21T16:07:53;7.30;99.90
20432;DHT22;10375;49.136;10.366;2023-11-21T16:10:22;7.30;99.90
20432;DHT22;10375;49.136;10.366;2023-11-21T16:12:50;7.20;99.90
20432;DHT22;10375;49.136;10.366;2023-11-21T16:15:18;7.20;99.90
20432;DHT22;10375;49.136;10.366;2023-11-21T16:17:45;7.20;99.90
20432;DHT22;10375;49.136;10.366;2023-11-21T16:20:13;7.20;99.90